Airport ID:KN38
Update Time (UTC):15/06/2021 13:58
Wind Speed (Knots):5
Wind Direction (Magnetic):300
Temperature (°C):16
Dew Point (°C):13
Humidity (%):83
Altimeter (inHg):29.85
Density Altitude (Feet):
Visibility:10+
Clouds (Hundreds of feet):BKN022 OVC027
Present Weather:
METAR:METAR KN38 151355Z AUTO 29007KT 250V340 10SM BKN021 BKN027 OVC034 16/13 A2985 RMK AO2

The data displayed is for advisory purposes only and is not to be used for flight planning or operations.